map of BCN home
BCN - Airport
Location
City:  Barcelona, Catalonia, Spain
Near (Alt.):El Prat del Llobregat
Name:El Prat
Old (Alt.):Barcelona International Airport
ICAO:LEBL
IATA:BCN

Details
Type:Airport (Aerodrome, Airfield)
Use:Public/Civil, International (customs port of entry)
Latitude:4117'49"N (41.297078)
Longitude:204'42"E (2.078464)
Datum:WGS 1984
Elevation:12 ft (4 m)
Variation:0.82E (WMM2015 magnetic declination)
0.11 annual change
Runways:3
Longest:11654 × 148 ft (3552 × 45 m), paved

Time
Time Zone:UTC+1 (DST+2)
Local Time:

Weather
METAR:LEBL 140130Z 34008KT 9999 FEW030 10/// Q1017 NOSIG
TAF:LEBL 132300Z 1400/1424 34008KT 9999 FEW030 TX17/1412Z TN06/1406Z PROB40
TEMPO 1407/1409 33010G20KT
TEMPO 1411/1414 VRB03KT
BECMG 1414/1416 25010KT

Related Locations
Nearby:
Farthest:CHT: 12243 mi / 19703 km
Waitangi [Tuuta], CIT, NZ

Find:

   beyond  
but within

Other Information
Maps:
NOTAMs:
Links:
Sources:

  
flag of Spain
flag of Catalonia
  

Sectional Chart

Flight Planning
at skyvector.com

Satellite Image

Google Maps Satellite view

 

Copyright © 2004-2017 Karl L. Swartz. All rights reserved.
The Great Circle Mapper name and logo are trademarks of the Great Circle Mapper.
All other trademarks mentioned herein belong to their respective owners.
Please see credits for attibutions and further copyright information.

  Follow gcmap on Facebook Follow gcmap on Twitter Follow gcmap on Google+ GCmap on LinkedIn

hCard Microformat

Geo Microformat